< < Back
Terminal Aerodrome Forecast


Current Version              Previous Versions:   1  2  3  4  5  6  7  8  9  

Terminal Aerodrome Forecast

486
FTUS44 KMRX 281728
TAFCHA
TAF
KCHA 281728Z 2818/2918 22012KT P6SM SCT050 BKN250
     FM290100 35004KT P6SM SCT250=

Latest METAR

989
SAUS80 KWBC 291800 RRB
MTRCHA
METAR KCHA 291753Z 03006KT 10SM SCT250 29/08 A3000 RMK AO2 SLP150
T02890078 10289 20150 58018


USA.gov is the U.S. government's official web portal to all federal, state and local government web resources and services.